sensor_id;sensor_type;location;lat;lon;timestamp;pressure;altitude;pressure_sealevel;temperature;humidity
70217;BME280;65567;55.684;37.570;2023-03-15T00:02:07;98567.28;;;6.89;42.47
70217;BME280;65567;55.684;37.570;2023-03-15T00:04:33;98565.38;;;6.93;42.44
70217;BME280;65567;55.684;37.570;2023-03-15T00:06:59;98563.03;;;7.06;42.57
70217;BME280;65567;55.684;37.570;2023-03-15T00:09:26;98566.69;;;7.02;42.70
70217;BME280;65567;55.684;37.570;2023-03-15T00:11:52;98567.34;;;7.07;42.58
70217;BME280;65567;55.684;37.570;2023-03-15T00:14:21;98558.97;;;7.00;42.60
70217;BME280;65567;55.684;37.570;2023-03-15T00:16:47;98570.66;;;6.91;42.98
70217;BME280;65567;55.684;37.570;2023-03-15T00:19:13;98569.53;;;6.97;42.90
70217;BME280;65567;55.684;37.570;2023-03-15T00:21:40;98562.56;;;6.98;42.85
70217;BME280;65567;55.684;37.570;2023-03-15T00:24:09;98559.97;;;6.78;43.58
70217;BME280;65567;55.684;37.570;2023-03-15T00:26:36;98567.13;;;6.92;43.08
70217;BME280;65567;55.684;37.570;2023-03-15T00:29:03;98569.38;;;6.81;43.58
70217;BME280;65567;55.684;37.570;2023-03-15T00:31:29;98562.09;;;6.89;43.63
70217;BME280;65567;55.684;37.570;2023-03-15T00:33:56;98566.34;;;6.90;43.54
70217;BME280;65567;55.684;37.570;2023-03-15T00:36:23;98567.66;;;6.82;43.75
70217;BME280;65567;55.684;37.570;2023-03-15T00:38:50;98565.03;;;6.82;43.81
70217;BME280;65567;55.684;37.570;2023-03-15T00:41:19;98561.72;;;6.78;43.75
70217;BME280;65567;55.684;37.570;2023-03-15T00:43:45;98557.72;;;6.90;43.67
70217;BME280;65567;55.684;37.570;2023-03-15T00:46:12;98561.13;;;6.90;43.58
70217;BME280;65567;55.684;37.570;2023-03-15T00:48:39;98559.59;;;6.86;43.65
70217;BME280;65567;55.684;37.570;2023-03-15T00:51:07;98561.09;;;6.73;44.10
70217;BME280;65567;55.684;37.570;2023-03-15T00:53:35;98555.19;;;6.69;44.14
70217;BME280;65567;55.684;37.570;2023-03-15T00:56:06;98555.44;;;6.63;44.38
70217;BME280;65567;55.684;37.570;2023-03-15T00:58:33;98562.88;;;6.72;44.39
70217;BME280;65567;55.684;37.570;2023-03-15T01:00:59;98564.19;;;7.00;43.63
70217;BME280;65567;55.684;37.570;2023-03-15T01:03:28;98558.72;;;7.05;43.74
70217;BME280;65567;55.684;37.570;2023-03-15T01:05:54;98552.16;;;7.15;43.74
70217;BME280;65567;55.684;37.570;2023-03-15T01:08:20;98559.56;;;7.24;43.56
70217;BME280;65567;55.684;37.570;2023-03-15T01:10:49;98549.38;;;7.20;43.44
70217;BME280;65567;55.684;37.570;2023-03-15T01:13:14;98560.44;;;7.06;44.04
70217;BME280;65567;55.684;37.570;2023-03-15T01:15:45;98556.28;;;7.02;44.12
70217;BME280;65567;55.684;37.570;2023-03-15T01:18:11;98551.59;;;6.91;44.47
70217;BME280;65567;55.684;37.570;2023-03-15T01:20:41;98555.03;;;6.91;44.54
70217;BME280;65567;55.684;37.570;2023-03-15T01:23:08;98549.53;;;6.98;44.10
70217;BME280;65567;55.684;37.570;2023-03-15T01:25:34;98560.31;;;7.09;44.26
70217;BME280;65567;55.684;37.570;2023-03-15T01:27:59;98555.28;;;7.04;44.14
70217;BME280;65567;55.684;37.570;2023-03-15T01:30:25;98553.69;;;7.02;44.06
70217;BME280;65567;55.684;37.570;2023-03-15T01:32:51;98557.81;;;7.06;44.34
70217;BME280;65567;55.684;37.570;2023-03-15T01:35:17;98553.41;;;6.89;44.47
70217;BME280;65567;55.684;37.570;2023-03-15T01:37:43;98550.25;;;7.01;44.14
70217;BME280;65567;55.684;37.570;2023-03-15T01:40:12;98553.47;;;6.87;44.71
70217;BME280;65567;55.684;37.570;2023-03-15T01:43:13;98557.59;;;6.74;45.15
70217;BME280;65567;55.684;37.570;2023-03-15T01:50:59;98552.84;;;6.82;45.00
70217;BME280;65567;55.684;37.570;2023-03-15T01:53:28;98558.41;;;6.93;45.13
70217;BME280;65567;55.684;37.570;2023-03-15T01:55:56;98552.50;;;6.90;45.38
70217;BME280;65567;55.684;37.570;2023-03-15T01:58:25;98555.72;;;6.95;45.25
70217;BME280;65567;55.684;37.570;2023-03-15T02:00:52;98552.50;;;6.71;45.84
70217;BME280;65567;55.684;37.570;2023-03-15T02:03:29;98570.00;;;6.86;45.43
70217;BME280;65567;55.684;37.570;2023-03-15T02:06:02;98548.72;;;6.78;45.42
70217;BME280;65567;55.684;37.570;2023-03-15T02:08:32;98556.44;;;6.80;45.82
70217;BME280;65567;55.684;37.570;2023-03-15T02:11:03;98571.78;;;6.86;45.69
70217;BME280;65567;55.684;37.570;2023-03-15T02:13:30;98560.66;;;6.82;45.78
70217;BME280;65567;55.684;37.570;2023-03-15T02:15:58;98559.53;;;6.88;46.01
70217;BME280;65567;55.684;37.570;2023-03-15T02:18:25;98568.56;;;7.00;45.70
70217;BME280;65567;55.684;37.570;2023-03-15T02:23:26;98569.25;;;6.84;45.75
70217;BME280;65567;55.684;37.570;2023-03-15T02:28:41;98574.75;;;6.97;45.75
70217;BME280;65567;55.684;37.570;2023-03-15T02:31:09;98568.66;;;6.97;45.86
70217;BME280;65567;55.684;37.570;2023-03-15T02:33:45;98574.25;;;6.89;46.04
70217;BME280;65567;55.684;37.570;2023-03-15T02:36:24;98566.50;;;6.87;46.17
70217;BME280;65567;55.684;37.570;2023-03-15T02:38:52;98558.22;;;6.79;46.01
70217;BME280;65567;55.684;37.570;2023-03-15T02:41:23;98571.72;;;6.87;46.00
70217;BME280;65567;55.684;37.570;2023-03-15T02:43:54;98566.06;;;6.97;45.74
70217;BME280;65567;55.684;37.570;2023-03-15T02:46:23;98567.41;;;6.86;45.98
70217;BME280;65567;55.684;37.570;2023-03-15T02:48:50;98571.50;;;6.92;45.97
70217;BME280;65567;55.684;37.570;2023-03-15T02:51:21;98572.53;;;6.88;45.85
70217;BME280;65567;55.684;37.570;2023-03-15T02:53:48;98566.44;;;6.89;46.03
70217;BME280;65567;55.684;37.570;2023-03-15T02:56:14;98561.22;;;6.89;46.19
70217;BME280;65567;55.684;37.570;2023-03-15T02:58:41;98563.00;;;6.88;46.03
70217;BME280;65567;55.684;37.570;2023-03-15T03:01:14;98561.09;;;6.92;45.86
70217;BME280;65567;55.684;37.570;2023-03-15T03:03:41;98575.22;;;6.86;46.25
70217;BME280;65567;55.684;37.570;2023-03-15T03:06:08;98572.00;;;6.81;46.50
70217;BME280;65567;55.684;37.570;2023-03-15T03:08:35;98568.94;;;6.90;45.93
70217;BME280;65567;55.684;37.570;2023-03-15T03:11:01;98576.41;;;6.98;45.89
70217;BME280;65567;55.684;37.570;2023-03-15T03:13:29;98576.72;;;6.92;45.82
70217;BME280;65567;55.684;37.570;2023-03-15T03:15:55;98573.06;;;6.96;45.88
70217;BME280;65567;55.684;37.570;2023-03-15T03:18:24;98565.50;;;6.90;46.20
70217;BME280;65567;55.684;37.570;2023-03-15T03:20:54;98572.50;;;6.89;46.30
70217;BME280;65567;55.684;37.570;2023-03-15T03:23:20;98572.34;;;6.73;46.54
70217;BME280;65567;55.684;37.570;2023-03-15T03:25:51;98567.47;;;6.66;46.67
70217;BME280;65567;55.684;37.570;2023-03-15T03:28:25;98562.84;;;6.53;47.20
70217;BME280;65567;55.684;37.570;2023-03-15T03:30:53;98585.97;;;6.40;47.16
70217;BME280;65567;55.684;37.570;2023-03-15T03:33:20;98566.63;;;6.46;47.15
70217;BME280;65567;55.684;37.570;2023-03-15T03:35:47;98567.81;;;6.58;46.96
70217;BME280;65567;55.684;37.570;2023-03-15T03:38:14;98570.00;;;6.48;47.36
70217;BME280;65567;55.684;37.570;2023-03-15T03:40:40;98572.69;;;6.66;47.01
70217;BME280;65567;55.684;37.570;2023-03-15T03:43:07;98569.53;;;6.59;46.84
70217;BME280;65567;55.684;37.570;2023-03-15T03:45:33;98557.97;;;6.45;47.08
70217;BME280;65567;55.684;37.570;2023-03-15T03:47:59;98576.91;;;6.49;47.04
70217;BME280;65567;55.684;37.570;2023-03-15T03:50:26;98575.69;;;6.56;46.82
70217;BME280;65567;55.684;37.570;2023-03-15T03:52:52;98578.34;;;6.36;47.34
70217;BME280;65567;55.684;37.570;2023-03-15T03:55:18;98574.44;;;6.46;47.11
70217;BME280;65567;55.684;37.570;2023-03-15T03:57:50;98579.50;;;6.49;47.30
70217;BME280;65567;55.684;37.570;2023-03-15T04:00:17;98580.91;;;6.56;46.75
70217;BME280;65567;55.684;37.570;2023-03-15T04:02:43;98591.06;;;6.63;46.83
70217;BME280;65567;55.684;37.570;2023-03-15T04:05:09;98579.81;;;6.62;47.09
70217;BME280;65567;55.684;37.570;2023-03-15T04:07:36;98590.16;;;6.64;46.74
70217;BME280;65567;55.684;37.570;2023-03-15T04:10:02;98595.09;;;6.70;46.49
70217;BME280;65567;55.684;37.570;2023-03-15T04:12:29;98591.91;;;6.82;46.41
70217;BME280;65567;55.684;37.570;2023-03-15T04:14:55;98596.75;;;6.90;46.46
70217;BME280;65567;55.684;37.570;2023-03-15T04:17:21;98590.06;;;7.03;46.13
70217;BME280;65567;55.684;37.570;2023-03-15T04:19:47;98594.16;;;7.09;45.83
70217;BME280;65567;55.684;37.570;2023-03-15T04:22:14;98588.16;;;7.07;45.82
70217;BME280;65567;55.684;37.570;2023-03-15T04:24:40;98600.19;;;7.09;45.68
70217;BME280;65567;55.684;37.570;2023-03-15T04:27:06;98594.16;;;7.09;45.50
70217;BME280;65567;55.684;37.570;2023-03-15T04:29:32;98582.59;;;7.15;45.44
70217;BME280;65567;55.684;37.570;2023-03-15T04:32:01;98590.75;;;7.07;45.68
70217;BME280;65567;55.684;37.570;2023-03-15T04:34:28;98597.66;;;7.08;45.48
70217;BME280;65567;55.684;37.570;2023-03-15T04:36:55;98590.50;;;7.13;45.64
70217;BME280;65567;55.684;37.570;2023-03-15T04:39:21;98597.06;;;7.20;45.41
70217;BME280;65567;55.684;37.570;2023-03-15T04:41:47;98603.19;;;7.38;45.23
70217;BME280;65567;55.684;37.570;2023-03-15T04:44:13;98604.22;;;7.53;44.88
70217;BME280;65567;55.684;37.570;2023-03-15T04:46:42;98612.31;;;7.47;44.71
70217;BME280;65567;55.684;37.570;2023-03-15T04:49:08;98595.03;;;7.64;44.42
70217;BME280;65567;55.684;37.570;2023-03-15T04:51:34;98604.97;;;7.55;44.42
70217;BME280;65567;55.684;37.570;2023-03-15T04:54:01;98601.78;;;7.68;44.17
70217;BME280;65567;55.684;37.570;2023-03-15T04:56:28;98606.75;;;7.55;44.58
70217;BME280;65567;55.684;37.570;2023-03-15T04:58:54;98612.66;;;7.58;44.04
70217;BME280;65567;55.684;37.570;2023-03-15T05:01:24;98604.34;;;7.50;44.15
70217;BME280;65567;55.684;37.570;2023-03-15T05:03:52;98622.00;;;7.80;43.87
70217;BME280;65567;55.684;37.570;2023-03-15T05:06:18;98619.66;;;7.75;43.66
70217;BME280;65567;55.684;37.570;2023-03-15T05:08:44;98618.56;;;7.80;43.58
70217;BME280;65567;55.684;37.570;2023-03-15T05:11:11;98615.13;;;7.79;43.58
70217;BME280;65567;55.684;37.570;2023-03-15T05:13:37;98620.66;;;7.73;43.63
70217;BME280;65567;55.684;37.570;2023-03-15T05:16:04;98634.22;;;7.97;43.25
70217;BME280;65567;55.684;37.570;2023-03-15T05:18:30;98640.81;;;8.04;42.91
70217;BME280;65567;55.684;37.570;2023-03-15T05:20:56;98654.31;;;8.13;42.66
70217;BME280;65567;55.684;37.570;2023-03-15T05:23:24;98636.69;;;8.35;42.70
70217;BME280;65567;55.684;37.570;2023-03-15T05:25:51;98631.38;;;8.37;42.08
70217;BME280;65567;55.684;37.570;2023-03-15T05:28:23;98631.31;;;8.56;42.11
70217;BME280;65567;55.684;37.570;2023-03-15T05:30:50;98647.06;;;9.04;41.15
70217;BME280;65567;55.684;37.570;2023-03-15T05:33:17;98626.81;;;9.55;40.36
70217;BME280;65567;55.684;37.570;2023-03-15T05:35:43;98652.22;;;10.14;39.51
70217;BME280;65567;55.684;37.570;2023-03-15T05:38:10;98649.06;;;10.54;38.67
70217;BME280;65567;55.684;37.570;2023-03-15T05:40:40;98644.19;;;10.91;38.07
70217;BME280;65567;55.684;37.570;2023-03-15T05:43:07;98645.09;;;11.33;37.62
70217;BME280;65567;55.684;37.570;2023-03-15T05:45:33;98653.91;;;11.60;36.38
70217;BME280;65567;55.684;37.570;2023-03-15T05:47:59;98655.16;;;11.81;35.88
70217;BME280;65567;55.684;37.570;2023-03-15T05:50:25;98665.50;;;11.97;35.47
70217;BME280;65567;55.684;37.570;2023-03-15T05:52:53;98650.25;;;12.68;34.67
70217;BME280;65567;55.684;37.570;2023-03-15T05:55:20;98652.91;;;13.18;34.40
70217;BME280;65567;55.684;37.570;2023-03-15T05:57:46;98656.34;;;13.69;33.69
70217;BME280;65567;55.684;37.570;2023-03-15T06:00:12;98655.81;;;14.12;33.31
70217;BME280;65567;55.684;37.570;2023-03-15T06:02:43;98638.72;;;14.18;31.62
70217;BME280;65567;55.684;37.570;2023-03-15T06:05:10;98647.91;;;14.12;32.04
70217;BME280;65567;55.684;37.570;2023-03-15T06:07:37;98657.09;;;14.31;32.35
70217;BME280;65567;55.684;37.570;2023-03-15T06:10:03;98646.88;;;14.26;31.65
70217;BME280;65567;55.684;37.570;2023-03-15T06:12:30;98664.91;;;14.55;31.55
70217;BME280;65567;55.684;37.570;2023-03-15T06:14:56;98660.78;;;14.75;31.16
70217;BME280;65567;55.684;37.570;2023-03-15T06:17:22;98656.00;;;14.80;30.81
70217;BME280;65567;55.684;37.570;2023-03-15T06:19:49;98670.00;;;14.81;30.86
70217;BME280;65567;55.684;37.570;2023-03-15T06:22:15;98659.97;;;14.39;31.16
70217;BME280;65567;55.684;37.570;2023-03-15T06:24:44;98676.91;;;13.88;31.61
70217;BME280;65567;55.684;37.570;2023-03-15T06:27:10;98671.19;;;13.46;32.14
70217;BME280;65567;55.684;37.570;2023-03-15T06:29:37;98652.72;;;13.21;32.98
70217;BME280;65567;55.684;37.570;2023-03-15T06:32:03;98673.94;;;13.44;32.73
70217;BME280;65567;55.684;37.570;2023-03-15T06:34:29;98661.91;;;13.53;32.56
70217;BME280;65567;55.684;37.570;2023-03-15T06:36:55;98665.63;;;13.75;32.74
70217;BME280;65567;55.684;37.570;2023-03-15T06:39:21;98667.63;;;13.71;32.53
70217;BME280;65567;55.684;37.570;2023-03-15T06:41:48;98673.59;;;13.73;32.58
70217;BME280;65567;55.684;37.570;2023-03-15T06:44:19;98661.03;;;13.52;32.56
70217;BME280;65567;55.684;37.570;2023-03-15T06:46:46;98665.41;;;13.28;32.70
70217;BME280;65567;55.684;37.570;2023-03-15T06:49:13;98679.63;;;13.38;33.16
70217;BME280;65567;55.684;37.570;2023-03-15T06:51:39;98690.00;;;13.52;32.77
70217;BME280;65567;55.684;37.570;2023-03-15T06:54:07;98678.44;;;13.79;32.83
70217;BME280;65567;55.684;37.570;2023-03-15T06:56:33;98672.72;;;14.21;32.47
70217;BME280;65567;55.684;37.570;2023-03-15T06:59:02;98684.69;;;14.61;32.33
70217;BME280;65567;55.684;37.570;2023-03-15T07:01:31;98678.28;;;14.87;31.32
70217;BME280;65567;55.684;37.570;2023-03-15T07:03:57;98678.53;;;14.84;31.20
70217;BME280;65567;55.684;37.570;2023-03-15T07:06:24;98684.25;;;14.67;31.22
70217;BME280;65567;55.684;37.570;2023-03-15T07:08:52;98681.41;;;14.81;31.51
70217;BME280;65567;55.684;37.570;2023-03-15T07:11:18;98690.97;;;14.82;31.30
70217;BME280;65567;55.684;37.570;2023-03-15T07:13:44;98695.66;;;14.90;31.45
70217;BME280;65567;55.684;37.570;2023-03-15T07:16:11;98694.09;;;14.99;31.34
70217;BME280;65567;55.684;37.570;2023-03-15T07:18:37;98672.63;;;15.38;30.57
70217;BME280;65567;55.684;37.570;2023-03-15T07:21:05;98694.03;;;15.67;29.94
70217;BME280;65567;55.684;37.570;2023-03-15T07:23:32;98702.75;;;16.01;30.64
70217;BME280;65567;55.684;37.570;2023-03-15T07:25:58;98701.16;;;16.10;30.28
70217;BME280;65567;55.684;37.570;2023-03-15T07:28:27;98700.25;;;15.89;29.91
70217;BME280;65567;55.684;37.570;2023-03-15T07:30:54;98708.94;;;16.12;30.21
70217;BME280;65567;55.684;37.570;2023-03-15T07:33:20;98715.66;;;16.37;29.64
70217;BME280;65567;55.684;37.570;2023-03-15T07:35:49;98709.91;;;16.11;29.35
70217;BME280;65567;55.684;37.570;2023-03-15T07:38:15;98727.81;;;16.07;30.04
70217;BME280;65567;55.684;37.570;2023-03-15T07:40:42;98715.84;;;15.92;29.70
70217;BME280;65567;55.684;37.570;2023-03-15T07:43:08;98721.84;;;15.94;30.09
70217;BME280;65567;55.684;37.570;2023-03-15T07:45:34;98719.97;;;16.17;29.80
70217;BME280;65567;55.684;37.570;2023-03-15T07:48:00;98713.59;;;16.19;29.49
70217;BME280;65567;55.684;37.570;2023-03-15T07:50:26;98713.94;;;15.94;29.69
70217;BME280;65567;55.684;37.570;2023-03-15T07:52:52;98744.25;;;15.56;30.21
70217;BME280;65567;55.684;37.570;2023-03-15T07:55:18;98723.50;;;15.17;30.37
70217;BME280;65567;55.684;37.570;2023-03-15T07:57:44;98718.06;;;14.84;31.16
70217;BME280;65567;55.684;37.570;2023-03-15T08:00:10;98723.69;;;14.44;31.43
70217;BME280;65567;55.684;37.570;2023-03-15T08:02:39;98723.44;;;14.36;31.57
70217;BME280;65567;55.684;37.570;2023-03-15T08:05:06;98724.44;;;14.46;31.88
70217;BME280;65567;55.684;37.570;2023-03-15T08:07:32;98722.38;;;14.38;31.79
70217;BME280;65567;55.684;37.570;2023-03-15T08:09:58;98735.56;;;14.14;31.99
70217;BME280;65567;55.684;37.570;2023-03-15T08:12:24;98727.97;;;13.98;32.57
70217;BME280;65567;55.684;37.570;2023-03-15T08:14:50;98728.94;;;13.84;32.50
70217;BME280;65567;55.684;37.570;2023-03-15T08:17:17;98724.75;;;13.82;32.42
70217;BME280;65567;55.684;37.570;2023-03-15T08:19:43;98731.41;;;13.99;33.00
70217;BME280;65567;55.684;37.570;2023-03-15T08:22:10;98739.47;;;14.33;32.08
70217;BME280;65567;55.684;37.570;2023-03-15T08:24:36;98719.66;;;13.92;32.90
70217;BME280;65567;55.684;37.570;2023-03-15T08:27:02;98729.19;;;13.81;33.23
70217;BME280;65567;55.684;37.570;2023-03-15T08:29:30;98732.47;;;13.96;33.18
70217;BME280;65567;55.684;37.570;2023-03-15T08:31:56;98736.06;;;14.19;32.86
70217;BME280;65567;55.684;37.570;2023-03-15T08:34:23;98746.81;;;14.41;32.65
70217;BME280;65567;55.684;37.570;2023-03-15T08:36:49;98731.31;;;14.25;32.78
70217;BME280;65567;55.684;37.570;2023-03-15T08:39:15;98746.28;;;14.24;33.06
70217;BME280;65567;55.684;37.570;2023-03-15T08:41:41;98746.28;;;14.24;32.96
70217;BME280;65567;55.684;37.570;2023-03-15T08:44:08;98746.09;;;13.90;33.32
70217;BME280;65567;55.684;37.570;2023-03-15T08:46:35;98748.81;;;13.64;33.70
70217;BME280;65567;55.684;37.570;2023-03-15T08:49:03;98736.72;;;13.62;33.99
70217;BME280;65567;55.684;37.570;2023-03-15T08:51:29;98744.00;;;13.58;34.10
70217;BME280;65567;55.684;37.570;2023-03-15T08:53:55;98739.81;;;13.80;33.75
70217;BME280;65567;55.684;37.570;2023-03-15T08:56:22;98756.53;;;13.16;34.43
70217;BME280;65567;55.684;37.570;2023-03-15T08:58:48;98748.84;;;12.87;35.04
70217;BME280;65567;55.684;37.570;2023-03-15T09:01:14;98744.84;;;12.55;35.90
70217;BME280;65567;55.684;37.570;2023-03-15T09:03:40;98748.44;;;12.80;35.61
70217;BME280;65567;55.684;37.570;2023-03-15T09:06:08;98748.44;;;12.67;36.03
70217;BME280;65567;55.684;37.570;2023-03-15T09:08:34;98745.06;;;12.52;36.45
70217;BME280;65567;55.684;37.570;2023-03-15T09:11:00;98741.69;;;12.50;36.33
70217;BME280;65567;55.684;37.570;2023-03-15T09:13:27;98737.91;;;12.54;36.12
70217;BME280;65567;55.684;37.570;2023-03-15T09:15:54;98746.94;;;12.63;36.40
70217;BME280;65567;55.684;37.570;2023-03-15T09:18:21;98742.97;;;12.58;36.36
70217;BME280;65567;55.684;37.570;2023-03-15T09:20:47;98743.81;;;12.71;36.17
70217;BME280;65567;55.684;37.570;2023-03-15T09:23:13;98752.63;;;12.70;36.33
70217;BME280;65567;55.684;37.570;2023-03-15T09:25:40;98766.94;;;12.66;36.38
70217;BME280;65567;55.684;37.570;2023-03-15T09:28:08;98747.56;;;12.54;36.91
70217;BME280;65567;55.684;37.570;2023-03-15T09:30:36;98742.09;;;12.57;36.70
70217;BME280;65567;55.684;37.570;2023-03-15T09:33:03;98744.75;;;12.70;36.68
70217;BME280;65567;55.684;37.570;2023-03-15T09:35:28;98751.50;;;12.34;37.39
70217;BME280;65567;55.684;37.570;2023-03-15T09:37:55;98740.16;;;12.33;37.33
70217;BME280;65567;55.684;37.570;2023-03-15T09:40:27;98735.56;;;12.37;37.46
70217;BME280;65567;55.684;37.570;2023-03-15T09:45:57;98744.06;;;12.28;37.87
70217;BME280;65567;55.684;37.570;2023-03-15T09:48:31;98731.34;;;12.34;37.62
70217;BME280;65567;55.684;37.570;2023-03-15T09:51:19;98743.50;;;12.22;37.98
70217;BME280;65567;55.684;37.570;2023-03-15T09:56:34;98735.34;;;12.40;37.92
70217;BME280;65567;55.684;37.570;2023-03-15T09:59:02;98738.00;;;12.53;37.57
70217;BME280;65567;55.684;37.570;2023-03-15T10:01:31;98737.69;;;12.70;37.37
70217;BME280;65567;55.684;37.570;2023-03-15T10:04:45;98745.91;;;12.66;37.59
70217;BME280;65567;55.684;37.570;2023-03-15T10:06:56;98728.84;;;12.59;37.83
70217;BME280;65567;55.684;37.570;2023-03-15T10:09:24;98720.66;;;12.50;37.88
70217;BME280;65567;55.684;37.570;2023-03-15T10:12:20;98720.69;;;12.63;37.97
70217;BME280;65567;55.684;37.570;2023-03-15T10:18:05;98715.03;;;12.82;37.76
70217;BME280;65567;55.684;37.570;2023-03-15T10:20:25;98722.56;;;12.87;37.55
70217;BME280;65567;55.684;37.570;2023-03-15T10:25:38;98718.78;;;13.17;37.22
70217;BME280;65567;55.684;37.570;2023-03-15T10:28:27;98719.59;;;13.43;36.80
70217;BME280;65567;55.684;37.570;2023-03-15T10:30:59;98721.97;;;13.72;36.27
70217;BME280;65567;55.684;37.570;2023-03-15T10:33:31;98720.66;;;13.78;36.55
70217;BME280;65567;55.684;37.570;2023-03-15T10:36:00;98706.97;;;14.21;35.52
70217;BME280;65567;55.684;37.570;2023-03-15T10:38:26;98720.44;;;14.65;35.43
70217;BME280;65567;55.684;37.570;2023-03-15T10:40:55;98729.34;;;14.98;34.76
70217;BME280;65567;55.684;37.570;2023-03-15T10:45:59;98741.56;;;15.90;33.18
70217;BME280;65567;55.684;37.570;2023-03-15T10:48:28;98725.72;;;15.90;32.94
70217;BME280;65567;55.684;37.570;2023-03-15T10:50:55;98741.81;;;16.19;32.35
70217;BME280;65567;55.684;37.570;2023-03-15T10:53:21;98766.59;;;16.18;32.10
70217;BME280;65567;55.684;37.570;2023-03-15T10:55:58;98745.94;;;16.12;32.30
70217;BME280;65567;55.684;37.570;2023-03-15T10:58:46;98726.31;;;16.26;31.79
70217;BME280;65567;55.684;37.570;2023-03-15T11:01:27;98730.97;;;16.33;31.84
70217;BME280;65567;55.684;37.570;2023-03-15T11:09:13;98744.66;;;16.81;31.12
70217;BME280;65567;55.684;37.570;2023-03-15T11:12:01;98722.38;;;16.83;31.19
70217;BME280;65567;55.684;37.570;2023-03-15T11:14:39;98728.38;;;16.43;31.54
70217;BME280;65567;55.684;37.570;2023-03-15T11:17:11;98744.38;;;16.09;32.04
70217;BME280;65567;55.684;37.570;2023-03-15T11:19:41;98729.91;;;15.92;32.21
70217;BME280;65567;55.684;37.570;2023-03-15T11:22:10;98723.13;;;15.56;32.75
70217;BME280;65567;55.684;37.570;2023-03-15T11:24:36;98728.28;;;15.46;32.81
70217;BME280;65567;55.684;37.570;2023-03-15T11:27:10;98725.16;;;15.41;32.91
70217;BME280;65567;55.684;37.570;2023-03-15T11:29:39;98725.97;;;15.52;32.86
70217;BME280;65567;55.684;37.570;2023-03-15T11:32:20;98749.28;;;15.13;33.83
70217;BME280;65567;55.684;37.570;2023-03-15T11:35:05;98740.59;;;14.89;33.95
70217;BME280;65567;55.684;37.570;2023-03-15T11:40:20;98738.31;;;14.48;34.72
70217;BME280;65567;55.684;37.570;2023-03-15T11:45:35;98737.50;;;14.24;35.32
70217;BME280;65567;55.684;37.570;2023-03-15T11:48:11;98728.72;;;14.47;34.62
70217;BME280;65567;55.684;37.570;2023-03-15T11:50:39;98725.59;;;14.42;35.15
70217;BME280;65567;55.684;37.570;2023-03-15T11:53:06;98718.69;;;14.41;34.85
70217;BME280;65567;55.684;37.570;2023-03-15T11:55:32;98723.63;;;13.97;35.71
70217;BME280;65567;55.684;37.570;2023-03-15T11:58:29;98710.41;;;13.62;36.59
70217;BME280;65567;55.684;37.570;2023-03-15T12:01:01;98746.22;;;13.26;37.27
70217;BME280;65567;55.684;37.570;2023-03-15T12:03:35;98734.66;;;13.02;37.67
70217;BME280;65567;55.684;37.570;2023-03-15T12:08:53;98726.56;;;12.93;37.84
70217;BME280;65567;55.684;37.570;2023-03-15T12:14:03;98751.91;;;12.55;38.42
70217;BME280;65567;55.684;37.570;2023-03-15T12:16:30;98749.56;;;12.10;39.25
70217;BME280;65567;55.684;37.570;2023-03-15T12:19:18;98747.31;;;12.04;39.52
70217;BME280;65567;55.684;37.570;2023-03-15T12:21:49;98750.63;;;12.20;39.40
70217;BME280;65567;55.684;37.570;2023-03-15T12:24:28;98747.53;;;12.41;39.04
70217;BME280;65567;55.684;37.570;2023-03-15T12:27:14;98751.78;;;12.56;38.90
70217;BME280;65567;55.684;37.570;2023-03-15T12:29:43;98760.19;;;12.62;38.83
70217;BME280;65567;55.684;37.570;2023-03-15T12:32:15;98752.00;;;12.66;38.39
70217;BME280;65567;55.684;37.570;2023-03-15T12:34:57;98759.59;;;12.71;38.77
70217;BME280;65567;55.684;37.570;2023-03-15T12:38:02;98756.63;;;12.76;38.75
70217;BME280;65567;55.684;37.570;2023-03-15T12:40:38;98745.06;;;12.52;38.67
70217;BME280;65567;55.684;37.570;2023-03-15T12:43:04;98755.06;;;12.20;39.46
70217;BME280;65567;55.684;37.570;2023-03-15T12:45:38;98754.56;;;12.28;39.23
70217;BME280;65567;55.684;37.570;2023-03-15T12:50:57;98777.50;;;12.11;39.43
70217;BME280;65567;55.684;37.570;2023-03-15T12:53:34;98756.88;;;12.05;39.66
70217;BME280;65567;55.684;37.570;2023-03-15T12:56:27;98759.22;;;12.10;39.49
70217;BME280;65567;55.684;37.570;2023-03-15T12:58:57;98769.22;;;12.17;39.42
70217;BME280;65567;55.684;37.570;2023-03-15T13:01:30;98757.97;;;12.15;39.42
70217;BME280;65567;55.684;37.570;2023-03-15T13:03:58;98767.66;;;12.15;39.77
70217;BME280;65567;55.684;37.570;2023-03-15T13:10:20;98765.81;;;11.88;40.09
70217;BME280;65567;55.684;37.570;2023-03-15T13:16:11;98770.75;;;12.07;39.67
70217;BME280;65567;55.684;37.570;2023-03-15T13:18:49;98761.75;;;12.11;39.80
70217;BME280;65567;55.684;37.570;2023-03-15T13:21:29;98754.28;;;11.90;40.33
70217;BME280;65567;55.684;37.570;2023-03-15T13:23:57;98752.38;;;12.07;39.86
70217;BME280;65567;55.684;37.570;2023-03-15T13:28:57;98742.84;;;11.92;40.23
70217;BME280;65567;55.684;37.570;2023-03-15T13:31:26;98745.31;;;11.80;40.53
70217;BME280;65567;55.684;37.570;2023-03-15T13:34:09;98740.19;;;11.64;40.78
70217;BME280;65567;55.684;37.570;2023-03-15T13:36:45;98728.31;;;11.44;41.21
70217;BME280;65567;55.684;37.570;2023-03-15T13:39:19;98735.59;;;11.68;40.60
70217;BME280;65567;55.684;37.570;2023-03-15T13:41:47;98739.63;;;11.59;40.76
70217;BME280;65567;55.684;37.570;2023-03-15T13:44:21;98737.13;;;11.57;40.94
70217;BME280;65567;55.684;37.570;2023-03-15T13:46:50;98739.25;;;11.65;40.77
70217;BME280;65567;55.684;37.570;2023-03-15T13:49:17;98731.63;;;11.75;40.74
70217;BME280;65567;55.684;37.570;2023-03-15T13:51:45;98747.09;;;11.80;40.49
70217;BME280;65567;55.684;37.570;2023-03-15T13:57:02;98730.91;;;11.73;40.92
70217;BME280;65567;55.684;37.570;2023-03-15T13:59:34;98734.28;;;11.61;40.81
70217;BME280;65567;55.684;37.570;2023-03-15T14:02:03;98727.38;;;11.45;41.20